»·PEaware :: N9984Z KLAX-KSNA

N9984Z :: KLAX-KSNA

FLIGHT INFORMATION

Flight Status: Arrived
Operator: Privately registered:
United States
More flights under this callsign
Pilot: Alex C. (14758)
Aircraft: Unknown
(TBM8)
More flights by this aircraft type
Origin: KLAX Los Angeles Intl
United States
Destination: KSNA John Wayne-Orange Co
United States
More flights between these airports :: More routes between these airports
Route: +SLI8 SLI
File this flight plan on PilotEdge
Remarks: I-6 Rating
Altitude:
(Current/Filed)
5,000ft
Speed:
(Current/Filed)
210kts
Departed: 07-Jan-18 08:18 PM
Arrived: 07-Jan-18 09:10 PM
Distance/Time
Traveled:
31nm/0:52
Distance/Time
To Go:
Arrived

Flight Plot

Page will automatically refresh every two minutes.

Flight plan parsing failed; only flown route is shown


Map Options




Map Legend


Flown Route
Filed Route
Departure Airport
Arrival Airport
Navaid (VOR, NDB)
Fix

Horizontal Profiles

Position Reports

Time Latitude Longitude Heading Altitude Ground
Speed
07-Jan-18 20:05 33.933642 -118.399431 174 128ft 0kts
07-Jan-18 20:06 33.933642 -118.399431 174 128ft 0kts
07-Jan-18 20:07 33.933642 -118.399431 174 128ft 0kts
07-Jan-18 20:08 33.933642 -118.399431 174 128ft 0kts
07-Jan-18 20:09 33.933642 -118.399431 174 128ft 0kts
07-Jan-18 20:10 33.933642 -118.399431 174 128ft 0kts
07-Jan-18 20:11 33.933642 -118.399431 174 128ft 0kts
07-Jan-18 20:12 33.933642 -118.399431 174 128ft 0kts
07-Jan-18 20:13 33.933642 -118.399431 174 128ft 0kts
07-Jan-18 20:14 33.933642 -118.399431 174 128ft 0kts
07-Jan-18 20:15 33.933642 -118.399431 174 128ft 0kts
07-Jan-18 20:16 33.933642 -118.399431 174 128ft 0kts
07-Jan-18 20:17 33.933642 -118.399431 174 128ft 0kts
07-Jan-18 20:18 33.933642 -118.399431 174 128ft 0kts
07-Jan-18 20:19 33.933642 -118.399431 174 128ft 0kts
07-Jan-18 20:20 33.933298 -118.398700 85 128ft 17kts
07-Jan-18 20:21 33.934566 -118.397854 72 128ft 21kts
07-Jan-18 20:22 33.934928 -118.394506 82 128ft 28kts
07-Jan-18 20:23 33.935242 -118.391379 82 128ft 32kts
07-Jan-18 20:24 33.935676 -118.386991 83 128ft 42kts
07-Jan-18 20:25 33.936072 -118.383316 81 128ft 22kts
07-Jan-18 20:26 33.936454 -118.382774 354 128ft 0kts
07-Jan-18 20:27 33.937298 -118.383400 266 128ft 21kts
07-Jan-18 20:28 33.936228 -118.396470 263 404ft 106kts
07-Jan-18 20:29 33.933120 -118.422399 259 1502ft 128kts
07-Jan-18 20:30 33.914437 -118.445887 213 3018ft 132kts
07-Jan-18 20:31 33.889920 -118.458977 168 4534ft 139kts
07-Jan-18 20:32 33.879752 -118.437178 82 5022ft 183kts
07-Jan-18 20:33 33.882558 -118.413127 82 5013ft 212kts
07-Jan-18 20:34 33.885507 -118.388405 82 5001ft 222kts
07-Jan-18 20:35 33.884796 -118.363764 116 4977ft 218kts
07-Jan-18 20:36 33.875595 -118.339274 114 4997ft 212kts
07-Jan-18 20:37 33.865752 -118.311103 113 4767ft 216kts
07-Jan-18 20:38 33.856014 -118.281712 112 4508ft 216kts
07-Jan-18 20:39 33.847056 -118.254132 112 4264ft 215kts
07-Jan-18 20:40 33.837930 -118.225907 112 4026ft 214kts
07-Jan-18 20:41 33.829198 -118.198776 112 3995ft 204kts
07-Jan-18 20:42 33.820891 -118.172932 112 3997ft 200kts
07-Jan-18 20:43 33.811827 -118.144563 112 3998ft 201kts
07-Jan-18 20:44 33.801764 -118.113014 112 3999ft 204kts
07-Jan-18 20:45 33.793339 -118.086583 112 3998ft 205kts
07-Jan-18 20:46 33.786438 -118.064986 112 3997ft 206kts
07-Jan-18 20:47 33.780896 -118.043696 90 3976ft 207kts
07-Jan-18 20:48 33.789419 -118.023679 48 4003ft 206kts
07-Jan-18 20:49 33.803304 -118.005770 65 3981ft 207kts
07-Jan-18 20:50 33.811933 -117.983981 64 3998ft 208kts
07-Jan-18 20:51 33.820444 -117.962828 64 3995ft 208kts
07-Jan-18 20:52 33.830075 -117.939004 63 3995ft 208kts
07-Jan-18 20:53 33.841601 -117.910499 63 3995ft 208kts
07-Jan-18 20:54 33.851560 -117.885734 62 3993ft 207kts
07-Jan-18 20:55 33.864611 -117.853777 63 3993ft 208kts
07-Jan-18 20:56 33.878931 -117.818457 63 3993ft 209kts
07-Jan-18 20:57 33.893258 -117.783336 63 3993ft 210kts
07-Jan-18 20:58 33.907737 -117.748048 63 3985ft 198kts
07-Jan-18 20:59 33.915988 -117.715343 111 3978ft 172kts
07-Jan-18 21:00 33.894053 -117.707275 219 4142ft 156kts
07-Jan-18 21:01 33.882549 -117.726471 231 4102ft 157kts
07-Jan-18 21:02 33.869425 -117.741408 218 3957ft 157kts
07-Jan-18 21:03 33.854087 -117.753973 212 3733ft 156kts
07-Jan-18 21:04 33.838896 -117.764644 210 3469ft 152kts
07-Jan-18 21:05 33.823552 -117.774780 209 3232ft 132kts
07-Jan-18 21:06 33.806112 -117.785987 208 2848ft 128kts
07-Jan-18 21:07 33.788474 -117.797236 208 2462ft 127kts
07-Jan-18 21:08 33.771115 -117.808292 207 2135ft 107kts
07-Jan-18 21:09 33.754782 -117.818654 207 1732ft 105kts
07-Jan-18 21:10 33.739226 -117.828530 207 1372ft 103kts
07-Jan-18 21:11 33.726244 -117.836780 207 1080ft 102kts
07-Jan-18 21:12 33.713044 -117.845151 207 788ft 101kts
07-Jan-18 21:13 33.700295 -117.853235 207 505ft 97kts
07-Jan-18 21:14 33.687070 -117.861619 207 225ft 96kts
07-Jan-18 21:15 33.674475 -117.869631 207 59ft 59kts
07-Jan-18 21:16 33.672176 -117.873015 20 59ft 0kts
07-Jan-18 21:17 33.672423 -117.872982 2 59ft 0kts

Navigation Log

Ident Type
Flight plan parsing failed, navigation log unavailable